Etusivu
METAR-TAF:

METAR-TAF

Lentoasemat :

Deer Park Airport

Deer Park, Washington, Yhdysvallat

Leveyspiiri: 47-58-27N, Pituuspiiri: 117-25-42W, korkeus merenpinnasta: 672 m

Tämänhetkinen sää

Tämä raportti tehtiin 5 minuuttia sitten, kello 11.05 UTC
tyyntä
Lämpötila 2°C
Kosteus 93%
Ilmanpaine 1019 hPa
Näkyvyys: 0.4 km
Hajanaisia pilviä 200 ft:n korkeudessa
Pilvistä 3500 ft:n korkeudessa
sumua

METAR: KDEW 061105Z AUTO 00000KT 1/4SM FG SCT002 OVC035 02/01 A3009 RMK AO2 T00170006

Aika: 03:10 (11:10 UTC)


TAF: puuttuu

Säähavainnot ja -ennusteet yli 4000 lentoasemalta (METAR- ja TAF-raportit).

Käytössä olevat sääasemat on merkitty karttaan keltaisilla ja punaisilla pisteillä.

Aseta hiiri pisteen päälle nähdäksesi sääaseman nimen.

Klikkaa sitten nähdäksesi säähavainnot ja -ennusteet.

Kartan vaihtaminen: klikkaa mustalla rastilla varustettuja vihreitä pisteitä, niin voit zoomata sisään; viivalla varustettua vihreää pistettä, niin voit zoomata ulos tai vihreitä nuolia, niin pääset viereisille kartoille.


METAR-TAF: